sensor_id;sensor_type;location;lat;lon;timestamp;temperature;humidity
43665;DHT22;29263;48.172;11.484;2022-09-03T00:00:31;13.50;99.90
43665;DHT22;29263;48.172;11.484;2022-09-03T00:03:10;13.60;99.90
43665;DHT22;29263;48.172;11.484;2022-09-03T00:05:42;13.60;99.90
43665;DHT22;29263;48.172;11.484;2022-09-03T00:08:29;13.60;99.90
43665;DHT22;29263;48.172;11.484;2022-09-03T00:13:28;13.60;99.90
43665;DHT22;29263;48.172;11.484;2022-09-03T00:15:56;13.60;99.90
43665;DHT22;29263;48.172;11.484;2022-09-03T00:18:26;13.60;99.90
43665;DHT22;29263;48.172;11.484;2022-09-03T00:21:08;13.60;99.90
43665;DHT22;29263;48.172;11.484;2022-09-03T00:23:39;13.60;99.90
43665;DHT22;29263;48.172;11.484;2022-09-03T00:28:58;13.60;99.90
43665;DHT22;29263;48.172;11.484;2022-09-03T00:31:38;13.60;99.90
43665;DHT22;29263;48.172;11.484;2022-09-03T00:34:20;13.60;99.90
43665;DHT22;29263;48.172;11.484;2022-09-03T00:36:48;13.50;99.90
43665;DHT22;29263;48.172;11.484;2022-09-03T00:39:19;13.50;99.90
43665;DHT22;29263;48.172;11.484;2022-09-03T00:47:12;13.50;99.90
43665;DHT22;29263;48.172;11.484;2022-09-03T00:57:49;13.40;99.90
43665;DHT22;29263;48.172;11.484;2022-09-03T01:00:21;13.30;99.90
43665;DHT22;29263;48.172;11.484;2022-09-03T01:02:57;13.30;99.90
43665;DHT22;29263;48.172;11.484;2022-09-03T01:08:41;13.30;99.90
43665;DHT22;29263;48.172;11.484;2022-09-03T01:11:27;13.30;99.90
43665;DHT22;29263;48.172;11.484;2022-09-03T01:16:59;13.20;99.90
43665;DHT22;29263;48.172;11.484;2022-09-03T01:22:36;13.20;99.90
43665;DHT22;29263;48.172;11.484;2022-09-03T01:30:24;13.10;99.90
43665;DHT22;29263;48.172;11.484;2022-09-03T01:33:17;13.00;99.90
43665;DHT22;29263;48.172;11.484;2022-09-03T01:35:56;13.00;99.90
43665;DHT22;29263;48.172;11.484;2022-09-03T01:38:37;12.90;99.90
43665;DHT22;29263;48.172;11.484;2022-09-03T01:49:51;12.70;99.90
43665;DHT22;29263;48.172;11.484;2022-09-03T01:55:27;12.60;99.90
43665;DHT22;29263;48.172;11.484;2022-09-03T01:57:59;12.60;99.90
43665;DHT22;29263;48.172;11.484;2022-09-03T02:00:27;12.60;99.90
43665;DHT22;29263;48.172;11.484;2022-09-03T02:02:55;12.60;99.90
43665;DHT22;29263;48.172;11.484;2022-09-03T02:05:26;12.50;99.90
43665;DHT22;29263;48.172;11.484;2022-09-03T02:08:06;12.50;99.90
43665;DHT22;29263;48.172;11.484;2022-09-03T02:10:38;12.50;99.90
43665;DHT22;29263;48.172;11.484;2022-09-03T02:13:09;12.40;99.90
43665;DHT22;29263;48.172;11.484;2022-09-03T02:15:38;12.40;99.90
43665;DHT22;29263;48.172;11.484;2022-09-03T02:18:09;12.40;99.90
43665;DHT22;29263;48.172;11.484;2022-09-03T02:20:36;12.40;99.90
43665;DHT22;29263;48.172;11.484;2022-09-03T02:23:02;12.40;99.90
43665;DHT22;29263;48.172;11.484;2022-09-03T02:25:33;12.30;99.90
43665;DHT22;29263;48.172;11.484;2022-09-03T02:28:00;12.30;99.90
43665;DHT22;29263;48.172;11.484;2022-09-03T02:30:26;12.30;99.90
43665;DHT22;29263;48.172;11.484;2022-09-03T02:32:52;12.30;99.90
43665;DHT22;29263;48.172;11.484;2022-09-03T02:35:18;12.20;99.90
43665;DHT22;29263;48.172;11.484;2022-09-03T02:37:44;12.20;99.90
43665;DHT22;29263;48.172;11.484;2022-09-03T02:40:09;12.10;99.90
43665;DHT22;29263;48.172;11.484;2022-09-03T02:42:36;12.10;99.90
43665;DHT22;29263;48.172;11.484;2022-09-03T02:47:46;12.00;99.90
43665;DHT22;29263;48.172;11.484;2022-09-03T02:50:14;12.10;99.90
43665;DHT22;29263;48.172;11.484;2022-09-03T02:52:40;12.00;99.90
43665;DHT22;29263;48.172;11.484;2022-09-03T02:55:05;12.00;99.90
43665;DHT22;29263;48.172;11.484;2022-09-03T02:57:31;12.00;99.90
43665;DHT22;29263;48.172;11.484;2022-09-03T02:59:57;12.00;99.90
43665;DHT22;29263;48.172;11.484;2022-09-03T03:02:22;12.00;99.90
43665;DHT22;29263;48.172;11.484;2022-09-03T03:04:48;11.90;99.90
43665;DHT22;29263;48.172;11.484;2022-09-03T03:07:14;11.80;99.90
43665;DHT22;29263;48.172;11.484;2022-09-03T03:09:39;11.80;99.90
43665;DHT22;29263;48.172;11.484;2022-09-03T03:12:05;11.80;99.90
43665;DHT22;29263;48.172;11.484;2022-09-03T03:14:31;11.80;99.90
43665;DHT22;29263;48.172;11.484;2022-09-03T03:16:57;11.70;99.90
43665;DHT22;29263;48.172;11.484;2022-09-03T03:19:22;11.70;99.90
43665;DHT22;29263;48.172;11.484;2022-09-03T03:21:48;11.70;99.90
43665;DHT22;29263;48.172;11.484;2022-09-03T03:24:13;11.70;99.90
43665;DHT22;29263;48.172;11.484;2022-09-03T03:26:39;11.70;99.90
43665;DHT22;29263;48.172;11.484;2022-09-03T03:29:05;11.70;99.90
43665;DHT22;29263;48.172;11.484;2022-09-03T03:31:32;11.60;99.90
43665;DHT22;29263;48.172;11.484;2022-09-03T03:33:59;11.60;99.90
43665;DHT22;29263;48.172;11.484;2022-09-03T03:36:28;11.60;99.90
43665;DHT22;29263;48.172;11.484;2022-09-03T03:38:55;11.60;99.90
43665;DHT22;29263;48.172;11.484;2022-09-03T03:41:24;11.60;99.90
43665;DHT22;29263;48.172;11.484;2022-09-03T03:43:54;11.60;99.90
43665;DHT22;29263;48.172;11.484;2022-09-03T03:46:21;11.60;99.90
43665;DHT22;29263;48.172;11.484;2022-09-03T03:48:48;11.50;99.90
43665;DHT22;29263;48.172;11.484;2022-09-03T03:51:14;11.50;99.90
43665;DHT22;29263;48.172;11.484;2022-09-03T03:53:40;11.50;99.90
43665;DHT22;29263;48.172;11.484;2022-09-03T03:56:10;11.40;99.90
43665;DHT22;29263;48.172;11.484;2022-09-03T03:58:36;11.40;99.90
43665;DHT22;29263;48.172;11.484;2022-09-03T04:01:09;11.40;99.90
43665;DHT22;29263;48.172;11.484;2022-09-03T04:03:36;11.40;99.90
43665;DHT22;29263;48.172;11.484;2022-09-03T04:06:03;11.40;99.90
43665;DHT22;29263;48.172;11.484;2022-09-03T04:08:29;11.40;99.90
43665;DHT22;29263;48.172;11.484;2022-09-03T04:11:00;11.40;99.90
43665;DHT22;29263;48.172;11.484;2022-09-03T04:13:33;11.40;99.90
43665;DHT22;29263;48.172;11.484;2022-09-03T04:18:32;11.40;99.90
43665;DHT22;29263;48.172;11.484;2022-09-03T04:21:03;11.40;99.90
43665;DHT22;29263;48.172;11.484;2022-09-03T04:23:32;11.40;99.90
43665;DHT22;29263;48.172;11.484;2022-09-03T04:25:58;11.40;99.90
43665;DHT22;29263;48.172;11.484;2022-09-03T04:28:23;11.40;99.90
43665;DHT22;29263;48.172;11.484;2022-09-03T04:30:49;11.50;99.90
43665;DHT22;29263;48.172;11.484;2022-09-03T04:33:15;11.50;99.90
43665;DHT22;29263;48.172;11.484;2022-09-03T04:35:40;11.60;99.90
43665;DHT22;29263;48.172;11.484;2022-09-03T04:38:07;11.60;99.90
43665;DHT22;29263;48.172;11.484;2022-09-03T04:40:32;11.70;99.90
43665;DHT22;29263;48.172;11.484;2022-09-03T04:42:58;11.70;99.90
43665;DHT22;29263;48.172;11.484;2022-09-03T04:45:25;11.70;99.90
43665;DHT22;29263;48.172;11.484;2022-09-03T04:47:59;11.80;99.90
43665;DHT22;29263;48.172;11.484;2022-09-03T04:50:26;11.80;99.90
43665;DHT22;29263;48.172;11.484;2022-09-03T04:52:53;11.90;99.90
43665;DHT22;29263;48.172;11.484;2022-09-03T04:55:21;12.00;99.90
43665;DHT22;29263;48.172;11.484;2022-09-03T04:57:47;12.00;99.90
43665;DHT22;29263;48.172;11.484;2022-09-03T05:00:13;12.10;99.90
43665;DHT22;29263;48.172;11.484;2022-09-03T05:02:43;12.10;99.90
43665;DHT22;29263;48.172;11.484;2022-09-03T05:05:11;12.10;99.90
43665;DHT22;29263;48.172;11.484;2022-09-03T05:07:36;12.20;99.90
43665;DHT22;29263;48.172;11.484;2022-09-03T05:10:10;12.30;99.90
43665;DHT22;29263;48.172;11.484;2022-09-03T05:12:57;12.40;99.90
43665;DHT22;29263;48.172;11.484;2022-09-03T05:15:23;12.50;99.90
43665;DHT22;29263;48.172;11.484;2022-09-03T05:17:48;12.50;99.90
43665;DHT22;29263;48.172;11.484;2022-09-03T05:20:17;12.60;99.90
43665;DHT22;29263;48.172;11.484;2022-09-03T05:22:42;12.70;99.90
43665;DHT22;29263;48.172;11.484;2022-09-03T05:25:08;12.80;99.90
43665;DHT22;29263;48.172;11.484;2022-09-03T05:27:34;12.80;99.90
43665;DHT22;29263;48.172;11.484;2022-09-03T05:29:59;12.90;99.90
43665;DHT22;29263;48.172;11.484;2022-09-03T05:32:25;13.00;99.90
43665;DHT22;29263;48.172;11.484;2022-09-03T05:34:53;13.10;99.90
43665;DHT22;29263;48.172;11.484;2022-09-03T05:37:18;13.20;99.90
43665;DHT22;29263;48.172;11.484;2022-09-03T05:39:44;13.30;99.90
43665;DHT22;29263;48.172;11.484;2022-09-03T05:42:09;13.40;99.90
43665;DHT22;29263;48.172;11.484;2022-09-03T05:44:37;13.50;99.90
43665;DHT22;29263;48.172;11.484;2022-09-03T05:47:03;13.60;99.90
43665;DHT22;29263;48.172;11.484;2022-09-03T05:49:29;13.70;99.90
43665;DHT22;29263;48.172;11.484;2022-09-03T05:51:55;13.80;99.90
43665;DHT22;29263;48.172;11.484;2022-09-03T05:54:20;14.00;99.90
43665;DHT22;29263;48.172;11.484;2022-09-03T05:56:46;13.90;99.90
43665;DHT22;29263;48.172;11.484;2022-09-03T05:59:12;14.00;99.90
43665;DHT22;29263;48.172;11.484;2022-09-03T06:01:40;13.90;99.90
43665;DHT22;29263;48.172;11.484;2022-09-03T06:04:09;13.90;99.90
43665;DHT22;29263;48.172;11.484;2022-09-03T06:06:40;13.90;99.90
43665;DHT22;29263;48.172;11.484;2022-09-03T06:09:12;14.00;99.90
43665;DHT22;29263;48.172;11.484;2022-09-03T06:11:42;13.90;99.90
43665;DHT22;29263;48.172;11.484;2022-09-03T06:14:10;13.90;99.90
43665;DHT22;29263;48.172;11.484;2022-09-03T06:16:46;13.90;99.90
43665;DHT22;29263;48.172;11.484;2022-09-03T06:19:14;14.00;99.90
43665;DHT22;29263;48.172;11.484;2022-09-03T06:21:42;14.00;99.90
43665;DHT22;29263;48.172;11.484;2022-09-03T06:24:10;14.00;99.90
43665;DHT22;29263;48.172;11.484;2022-09-03T06:26:37;14.00;99.90
43665;DHT22;29263;48.172;11.484;2022-09-03T06:29:03;14.00;99.90
43665;DHT22;29263;48.172;11.484;2022-09-03T06:31:29;14.00;99.90
43665;DHT22;29263;48.172;11.484;2022-09-03T06:33:55;14.00;99.90
43665;DHT22;29263;48.172;11.484;2022-09-03T06:36:22;14.10;99.90
43665;DHT22;29263;48.172;11.484;2022-09-03T06:38:51;14.10;99.90
43665;DHT22;29263;48.172;11.484;2022-09-03T06:41:18;14.10;99.90
43665;DHT22;29263;48.172;11.484;2022-09-03T06:43:58;14.10;99.90
43665;DHT22;29263;48.172;11.484;2022-09-03T06:46:26;14.10;99.90
43665;DHT22;29263;48.172;11.484;2022-09-03T06:48:52;14.10;99.90
43665;DHT22;29263;48.172;11.484;2022-09-03T06:51:23;14.10;99.90
43665;DHT22;29263;48.172;11.484;2022-09-03T06:53:52;14.10;99.90
43665;DHT22;29263;48.172;11.484;2022-09-03T07:03:01;14.10;99.90
43665;DHT22;29263;48.172;11.484;2022-09-03T07:05:28;14.10;99.90
43665;DHT22;29263;48.172;11.484;2022-09-03T07:07:54;14.10;99.90
43665;DHT22;29263;48.172;11.484;2022-09-03T07:10:20;14.10;99.90
43665;DHT22;29263;48.172;11.484;2022-09-03T07:12:46;14.00;99.90
43665;DHT22;29263;48.172;11.484;2022-09-03T07:15:11;14.00;99.90
43665;DHT22;29263;48.172;11.484;2022-09-03T07:17:37;14.00;99.90
43665;DHT22;29263;48.172;11.484;2022-09-03T07:20:03;14.00;99.90
43665;DHT22;29263;48.172;11.484;2022-09-03T07:22:28;14.00;99.90
43665;DHT22;29263;48.172;11.484;2022-09-03T07:24:54;14.00;99.90
43665;DHT22;29263;48.172;11.484;2022-09-03T07:27:19;14.10;99.90
43665;DHT22;29263;48.172;11.484;2022-09-03T07:29:45;14.10;99.90
43665;DHT22;29263;48.172;11.484;2022-09-03T07:32:11;14.20;99.90
43665;DHT22;29263;48.172;11.484;2022-09-03T07:34:36;14.20;99.90
43665;DHT22;29263;48.172;11.484;2022-09-03T07:37:02;14.30;99.90
43665;DHT22;29263;48.172;11.484;2022-09-03T07:39:29;14.30;99.90
43665;DHT22;29263;48.172;11.484;2022-09-03T07:41:55;14.40;99.90
43665;DHT22;29263;48.172;11.484;2022-09-03T07:44:22;14.40;99.90
43665;DHT22;29263;48.172;11.484;2022-09-03T07:46:48;14.50;99.90
43665;DHT22;29263;48.172;11.484;2022-09-03T07:49:15;14.50;99.90
43665;DHT22;29263;48.172;11.484;2022-09-03T07:51:41;14.50;99.90
43665;DHT22;29263;48.172;11.484;2022-09-03T07:54:08;14.60;99.90
43665;DHT22;29263;48.172;11.484;2022-09-03T07:56:35;14.60;99.90
43665;DHT22;29263;48.172;11.484;2022-09-03T07:59:02;14.60;99.90
43665;DHT22;29263;48.172;11.484;2022-09-03T08:01:28;14.60;99.90
43665;DHT22;29263;48.172;11.484;2022-09-03T08:03:56;14.70;99.90
43665;DHT22;29263;48.172;11.484;2022-09-03T08:06:23;14.70;99.90
43665;DHT22;29263;48.172;11.484;2022-09-03T08:08:57;14.70;99.90
43665;DHT22;29263;48.172;11.484;2022-09-03T08:11:25;14.80;99.90
43665;DHT22;29263;48.172;11.484;2022-09-03T08:14:02;14.90;99.90
43665;DHT22;29263;48.172;11.484;2022-09-03T08:16:33;15.00;99.90
43665;DHT22;29263;48.172;11.484;2022-09-03T08:18:59;15.20;99.90
43665;DHT22;29263;48.172;11.484;2022-09-03T08:21:26;15.30;99.90
43665;DHT22;29263;48.172;11.484;2022-09-03T08:23:54;15.50;99.90
43665;DHT22;29263;48.172;11.484;2022-09-03T08:26:21;15.60;99.90
43665;DHT22;29263;48.172;11.484;2022-09-03T08:28:47;15.80;99.90
43665;DHT22;29263;48.172;11.484;2022-09-03T08:31:18;15.90;99.90
43665;DHT22;29263;48.172;11.484;2022-09-03T08:33:50;16.10;99.90
43665;DHT22;29263;48.172;11.484;2022-09-03T08:36:21;16.40;99.90
43665;DHT22;29263;48.172;11.484;2022-09-03T08:38:48;16.50;99.90
43665;DHT22;29263;48.172;11.484;2022-09-03T08:41:32;16.60;99.90
43665;DHT22;29263;48.172;11.484;2022-09-03T08:47:14;16.90;99.90
43665;DHT22;29263;48.172;11.484;2022-09-03T09:00:46;18.20;99.90
43665;DHT22;29263;48.172;11.484;2022-09-03T09:03:32;18.40;99.90
43665;DHT22;29263;48.172;11.484;2022-09-03T09:08:41;19.00;99.90
43665;DHT22;29263;48.172;11.484;2022-09-03T09:14:21;19.00;99.90
43665;DHT22;29263;48.172;11.484;2022-09-03T09:16:58;18.90;99.90
43665;DHT22;29263;48.172;11.484;2022-09-03T09:22:09;19.10;99.90
43665;DHT22;29263;48.172;11.484;2022-09-03T09:24:43;19.20;99.90
43665;DHT22;29263;48.172;11.484;2022-09-03T09:27:12;19.30;99.90
43665;DHT22;29263;48.172;11.484;2022-09-03T09:29:41;19.60;99.90
43665;DHT22;29263;48.172;11.484;2022-09-03T09:32:09;19.70;99.90
43665;DHT22;29263;48.172;11.484;2022-09-03T09:34:37;19.80;99.90
43665;DHT22;29263;48.172;11.484;2022-09-03T09:37:08;19.90;99.90
43665;DHT22;29263;48.172;11.484;2022-09-03T09:39:34;20.00;99.90
43665;DHT22;29263;48.172;11.484;2022-09-03T09:42:03;20.10;99.90
43665;DHT22;29263;48.172;11.484;2022-09-03T09:44:34;20.30;99.90
43665;DHT22;29263;48.172;11.484;2022-09-03T09:47:11;20.60;99.90
43665;DHT22;29263;48.172;11.484;2022-09-03T09:49:57;20.70;99.90
43665;DHT22;29263;48.172;11.484;2022-09-03T09:52:25;20.90;99.90
43665;DHT22;29263;48.172;11.484;2022-09-03T09:55:04;21.00;99.90
43665;DHT22;29263;48.172;11.484;2022-09-03T09:57:32;21.00;99.90
43665;DHT22;29263;48.172;11.484;2022-09-03T10:00:12;21.00;99.90
43665;DHT22;29263;48.172;11.484;2022-09-03T10:02:40;21.10;99.90
43665;DHT22;29263;48.172;11.484;2022-09-03T10:05:31;21.10;99.90
43665;DHT22;29263;48.172;11.484;2022-09-03T10:08:06;21.10;99.90
43665;DHT22;29263;48.172;11.484;2022-09-03T10:10:44;21.10;99.90
43665;DHT22;29263;48.172;11.484;2022-09-03T10:13:20;20.80;99.90
43665;DHT22;29263;48.172;11.484;2022-09-03T10:18:42;20.90;99.90
43665;DHT22;29263;48.172;11.484;2022-09-03T10:21:17;21.20;99.90
43665;DHT22;29263;48.172;11.484;2022-09-03T10:26:47;21.30;99.90
43665;DHT22;29263;48.172;11.484;2022-09-03T10:29:17;21.40;99.90
43665;DHT22;29263;48.172;11.484;2022-09-03T10:31:58;21.60;99.90
43665;DHT22;29263;48.172;11.484;2022-09-03T10:37:06;21.80;99.90
43665;DHT22;29263;48.172;11.484;2022-09-03T10:45:24;21.60;99.90
43665;DHT22;29263;48.172;11.484;2022-09-03T10:56:37;21.90;99.90
43665;DHT22;29263;48.172;11.484;2022-09-03T11:02:00;22.20;99.90
43665;DHT22;29263;48.172;11.484;2022-09-03T11:05:00;22.60;99.90
43665;DHT22;29263;48.172;11.484;2022-09-03T11:07:31;22.80;99.80
43665;DHT22;29263;48.172;11.484;2022-09-03T11:10:21;22.90;99.90
43665;DHT22;29263;48.172;11.484;2022-09-03T11:13:14;22.90;99.90
43665;DHT22;29263;48.172;11.484;2022-09-03T11:15:48;22.70;99.90
43665;DHT22;29263;48.172;11.484;2022-09-03T11:18:25;22.50;99.90
43665;DHT22;29263;48.172;11.484;2022-09-03T11:20:55;22.50;99.90
43665;DHT22;29263;48.172;11.484;2022-09-03T11:23:28;22.60;99.90
43665;DHT22;29263;48.172;11.484;2022-09-03T11:25:57;22.70;99.90
43665;DHT22;29263;48.172;11.484;2022-09-03T11:28:26;22.80;99.90
43665;DHT22;29263;48.172;11.484;2022-09-03T11:33:32;23.50;99.90
43665;DHT22;29263;48.172;11.484;2022-09-03T11:36:05;23.70;85.10
43665;DHT22;29263;48.172;11.484;2022-09-03T11:38:30;23.70;87.60
43665;DHT22;29263;48.172;11.484;2022-09-03T11:41:13;23.70;91.80
43665;DHT22;29263;48.172;11.484;2022-09-03T11:43:40;23.60;88.20
43665;DHT22;29263;48.172;11.484;2022-09-03T11:46:27;23.60;91.70
43665;DHT22;29263;48.172;11.484;2022-09-03T11:49:08;24.00;82.00
43665;DHT22;29263;48.172;11.484;2022-09-03T11:51:35;24.10;77.30
43665;DHT22;29263;48.172;11.484;2022-09-03T11:54:03;23.80;76.00
43665;DHT22;29263;48.172;11.484;2022-09-03T11:56:31;23.40;74.00
43665;DHT22;29263;48.172;11.484;2022-09-03T12:02:26;23.30;78.20
43665;DHT22;29263;48.172;11.484;2022-09-03T12:04:44;23.30;83.00
43665;DHT22;29263;48.172;11.484;2022-09-03T12:10:26;23.30;85.30
43665;DHT22;29263;48.172;11.484;2022-09-03T12:13:01;23.30;91.90
43665;DHT22;29263;48.172;11.484;2022-09-03T12:16:04;23.40;83.20
43665;DHT22;29263;48.172;11.484;2022-09-03T12:18:34;23.50;76.80
43665;DHT22;29263;48.172;11.484;2022-09-03T12:21:04;23.30;89.40
43665;DHT22;29263;48.172;11.484;2022-09-03T12:23:45;23.30;89.00
43665;DHT22;29263;48.172;11.484;2022-09-03T12:26:19;23.10;78.80
43665;DHT22;29263;48.172;11.484;2022-09-03T12:28:50;23.00;75.10
43665;DHT22;29263;48.172;11.484;2022-09-03T12:31:22;23.00;76.40
43665;DHT22;29263;48.172;11.484;2022-09-03T12:34:00;23.00;79.80
43665;DHT22;29263;48.172;11.484;2022-09-03T12:36:56;23.10;76.80
43665;DHT22;29263;48.172;11.484;2022-09-03T12:39:27;23.20;75.60
43665;DHT22;29263;48.172;11.484;2022-09-03T12:41:58;23.10;77.70
43665;DHT22;29263;48.172;11.484;2022-09-03T12:47:38;23.10;75.60
43665;DHT22;29263;48.172;11.484;2022-09-03T12:50:41;23.20;77.70
43665;DHT22;29263;48.172;11.484;2022-09-03T12:56:33;23.40;76.60
43665;DHT22;29263;48.172;11.484;2022-09-03T12:59:21;23.50;75.30
43665;DHT22;29263;48.172;11.484;2022-09-03T13:01:56;23.60;68.80
43665;DHT22;29263;48.172;11.484;2022-09-03T13:04:29;24.20;68.70
43665;DHT22;29263;48.172;11.484;2022-09-03T13:07:10;25.20;67.80
43665;DHT22;29263;48.172;11.484;2022-09-03T13:09:38;26.10;64.10
43665;DHT22;29263;48.172;11.484;2022-09-03T13:12:05;26.10;60.90
43665;DHT22;29263;48.172;11.484;2022-09-03T13:14:45;26.20;61.60
43665;DHT22;29263;48.172;11.484;2022-09-03T13:24:45;26.60;59.20
43665;DHT22;29263;48.172;11.484;2022-09-03T13:26:51;25.90;58.90
43665;DHT22;29263;48.172;11.484;2022-09-03T13:35:04;25.80;60.80
43665;DHT22;29263;48.172;11.484;2022-09-03T13:37:37;25.60;58.30
43665;DHT22;29263;48.172;11.484;2022-09-03T13:46:19;23.80;73.20
43665;DHT22;29263;48.172;11.484;2022-09-03T13:48:48;23.40;74.30
43665;DHT22;29263;48.172;11.484;2022-09-03T13:51:45;23.20;83.30
43665;DHT22;29263;48.172;11.484;2022-09-03T13:54:33;23.00;91.10
43665;DHT22;29263;48.172;11.484;2022-09-03T13:59:55;22.40;82.80
43665;DHT22;29263;48.172;11.484;2022-09-03T14:08:24;22.20;92.00
43665;DHT22;29263;48.172;11.484;2022-09-03T14:14:22;21.90;90.00
43665;DHT22;29263;48.172;11.484;2022-09-03T14:20:27;21.20;97.20
43665;DHT22;29263;48.172;11.484;2022-09-03T14:25:24;20.20;99.90
43665;DHT22;29263;48.172;11.484;2022-09-03T14:27:50;19.70;99.90
43665;DHT22;29263;48.172;11.484;2022-09-03T14:33:20;18.40;99.90
43665;DHT22;29263;48.172;11.484;2022-09-03T14:36:11;17.80;99.90
43665;DHT22;29263;48.172;11.484;2022-09-03T14:44:49;17.00;99.90
43665;DHT22;29263;48.172;11.484;2022-09-03T14:56:04;16.50;99.90
43665;DHT22;29263;48.172;11.484;2022-09-03T15:01:35;16.60;99.90
43665;DHT22;29263;48.172;11.484;2022-09-03T15:04:31;16.50;99.90
43665;DHT22;29263;48.172;11.484;2022-09-03T15:09:50;16.50;99.90
43665;DHT22;29263;48.172;11.484;2022-09-03T15:12:52;16.40;99.90
43665;DHT22;29263;48.172;11.484;2022-09-03T15:15:35;16.40;99.90
43665;DHT22;29263;48.172;11.484;2022-09-03T15:27:35;16.00;99.90
43665;DHT22;29263;48.172;11.484;2022-09-03T15:30:10;16.00;99.90
43665;DHT22;29263;48.172;11.484;2022-09-03T15:35:07;15.90;99.90
43665;DHT22;29263;48.172;11.484;2022-09-03T15:37:55;15.90;99.90
43665;DHT22;29263;48.172;11.484;2022-09-03T15:40:34;15.90;99.90
43665;DHT22;29263;48.172;11.484;2022-09-03T15:43:09;15.80;99.90
43665;DHT22;29263;48.172;11.484;2022-09-03T15:45:53;15.80;99.90
43665;DHT22;29263;48.172;11.484;2022-09-03T15:49:05;15.80;99.90
43665;DHT22;29263;48.172;11.484;2022-09-03T16:00:56;15.80;99.90
43665;DHT22;29263;48.172;11.484;2022-09-03T16:04:09;15.90;99.90
43665;DHT22;29263;48.172;11.484;2022-09-03T16:15:39;16.60;99.90
43665;DHT22;29263;48.172;11.484;2022-09-03T16:18:34;16.70;99.90
43665;DHT22;29263;48.172;11.484;2022-09-03T20:30:20;13.70;99.90
